createdAt,value
2022-11-30T00:01:25.526Z,96604.44
2022-11-30T00:03:55.250Z,96604.84
2022-11-30T00:06:23.957Z,96602.19
2022-11-30T00:08:53.622Z,96605.66
2022-11-30T00:11:23.033Z,96597.06
2022-11-30T00:13:51.323Z,96600.16
2022-11-30T00:16:20.399Z,96603.22
2022-11-30T00:18:48.296Z,96597.06
2022-11-30T00:21:16.941Z,96601.16
2022-11-30T00:23:46.803Z,96598.31
2022-11-30T00:26:16.589Z,96606.09
2022-11-30T00:28:45.649Z,96604.03
2022-11-30T00:31:15.483Z,96597.94
2022-11-30T00:33:44.961Z,96602.38
2022-11-30T00:36:14.980Z,96593.41
2022-11-30T00:38:42.752Z,96600.56
2022-11-30T00:41:10.914Z,96600.38
2022-11-30T00:43:38.789Z,96596.66
2022-11-30T00:46:09.159Z,96598.31
2022-11-30T00:48:37.070Z,96596.06
2022-11-30T00:51:08.089Z,96594.44
2022-11-30T00:53:35.853Z,96605.03
2022-11-30T00:56:03.567Z,96605.25
2022-11-30T00:58:31.282Z,96607.50
2022-11-30T01:00:59.080Z,96602.78
2022-11-30T01:03:26.880Z,96597.91
2022-11-30T01:05:54.644Z,96599.56
2022-11-30T01:08:25.600Z,96603.44
2022-11-30T01:10:53.432Z,96591.16
2022-11-30T01:13:21.176Z,96589.31
2022-11-30T01:15:48.944Z,96599.31
2022-11-30T01:18:16.948Z,96613.41
2022-11-30T01:20:45.084Z,96566.78
2022-11-30T01:23:12.857Z,96602.59
2022-11-30T01:25:41.953Z,96611.59
2022-11-30T01:28:11.159Z,96615.25
2022-11-30T01:30:38.932Z,96611.59
2022-11-30T01:33:07.105Z,96618.53
2022-11-30T01:35:34.843Z,96608.09
2022-11-30T01:38:02.536Z,96614.63
2022-11-30T01:40:30.205Z,96615.44
2022-11-30T01:42:59.329Z,96612.59
2022-11-30T01:45:27.058Z,96616.25
2022-11-30T01:47:57.794Z,96606.03
2022-11-30T01:50:31.188Z,96610.53
2022-11-30T01:52:58.944Z,96620.72
2022-11-30T01:55:30.777Z,96618.66
2022-11-30T01:58:04.957Z,96622.75
2022-11-30T02:00:33.444Z,96621.13
2022-11-30T02:03:04.509Z,96618.06
2022-11-30T02:05:34.272Z,96619.28
2022-11-30T02:08:02.338Z,96618.69
2022-11-30T02:10:33.065Z,96612.97
2022-11-30T02:13:17.959Z,96612.97
2022-11-30T02:15:54.574Z,96607.41
2022-11-30T02:18:29.769Z,96619.09
2022-11-30T02:21:05.909Z,96626.66
2022-11-30T02:23:54.069Z,96620.72
2022-11-30T02:26:37.683Z,96629.72
2022-11-30T02:29:15.214Z,96617.69
2022-11-30T02:31:50.062Z,96620.75
2022-11-30T02:34:22.108Z,96614.19
2022-11-30T02:36:49.715Z,96615.44
2022-11-30T02:39:18.049Z,96626.03
2022-11-30T02:41:45.765Z,96633.41
2022-11-30T02:44:16.389Z,96623.16
2022-11-30T02:47:03.782Z,96618.28
2022-11-30T02:49:37.032Z,96620.31
2022-11-30T02:52:07.387Z,96624.81
2022-11-30T02:54:35.655Z,96619.09
2022-11-30T02:57:03.432Z,96620.72
2022-11-30T02:59:33.254Z,96610.94
2022-11-30T03:02:01.183Z,96620.34
2022-11-30T03:04:28.957Z,96625.25
2022-11-30T03:06:56.688Z,96627.91
2022-11-30T03:09:24.391Z,96633.00
2022-11-30T03:11:52.094Z,96628.31
2022-11-30T03:14:19.823Z,96619.94
2022-11-30T03:16:50.253Z,96624.44
2022-11-30T03:19:18.004Z,96624.81
2022-11-30T03:21:45.773Z,96628.94
2022-11-30T03:24:13.608Z,96630.78
2022-11-30T03:26:41.334Z,96630.53
2022-11-30T03:29:09.036Z,96633.84
2022-11-30T03:31:36.787Z,96621.97
2022-11-30T03:34:05.995Z,96633.44
2022-11-30T03:36:33.776Z,96637.09
2022-11-30T03:39:01.883Z,96633.84
2022-11-30T03:41:29.678Z,96627.47
2022-11-30T03:43:57.482Z,96625.63
2022-11-30T03:46:27.018Z,96627.47
2022-11-30T03:48:54.861Z,96636.66
2022-11-30T03:51:24.007Z,96627.31
2022-11-30T03:53:51.880Z,96635.50
2022-11-30T03:56:21.014Z,96630.16
2022-11-30T03:58:48.795Z,96636.72
2022-11-30T04:01:19.315Z,96627.69
2022-11-30T04:03:47.084Z,96624.41
2022-11-30T04:06:15.306Z,96621.16
2022-11-30T04:08:45.077Z,96630.13
2022-11-30T04:11:13.067Z,96625.25
2022-11-30T04:13:42.009Z,96634.66
2022-11-30T04:16:10.642Z,96628.91
2022-11-30T04:18:39.396Z,96628.31
2022-11-30T04:21:08.476Z,96634.88
2022-11-30T04:23:38.063Z,96637.88
2022-11-30T04:26:09.198Z,96627.69
2022-11-30T04:28:37.106Z,96632.56
2022-11-30T04:31:05.060Z,96639.97
2022-11-30T04:33:32.781Z,96631.31
2022-11-30T04:36:03.047Z,96627.25
2022-11-30T04:38:31.471Z,96629.91
2022-11-30T04:40:59.263Z,96618.44
2022-11-30T04:43:28.689Z,96602.28
2022-11-30T04:45:56.484Z,96620.69
2022-11-30T04:48:24.272Z,96634.16
2022-11-30T04:50:52.155Z,96623.13
2022-11-30T04:53:19.862Z,96621.75
2022-11-30T04:55:47.532Z,96625.84
2022-11-30T04:58:15.348Z,96613.41
2022-11-30T05:00:44.408Z,96617.66
2022-11-30T05:03:12.136Z,96618.69
2022-11-30T05:05:40.249Z,96621.13
2022-11-30T05:08:08.197Z,96620.31
2022-11-30T05:10:35.936Z,96610.91
2022-11-30T05:13:03.626Z,96625.22
2022-11-30T05:15:32.497Z,96623.38
2022-11-30T05:18:01.870Z,96623.16
2022-11-30T05:20:30.244Z,96625.22
2022-11-30T05:22:58.905Z,96594.94
2022-11-30T05:25:26.601Z,96624.81
2022-11-30T05:27:54.327Z,96630.69
2022-11-30T05:30:22.197Z,96627.69
2022-11-30T05:32:50.008Z,96625.63
2022-11-30T05:35:19.176Z,96621.31
2022-11-30T05:37:46.835Z,96615.00
2022-11-30T05:40:14.779Z,96615.41
2022-11-30T05:42:42.480Z,96624.41
2022-11-30T05:45:11.445Z,96629.69
2022-11-30T05:47:39.107Z,96619.50
2022-11-30T05:50:08.322Z,96624.63
2022-11-30T05:52:37.387Z,96628.47
2022-11-30T05:55:05.646Z,96630.97
2022-11-30T05:57:36.763Z,96631.31
2022-11-30T06:00:05.084Z,96625.59
2022-11-30T06:02:32.895Z,96622.13
2022-11-30T06:05:00.767Z,96629.31
2022-11-30T06:07:28.507Z,96627.69
2022-11-30T06:09:57.644Z,96618.47
2022-11-30T06:12:25.560Z,96630.78
2022-11-30T06:14:53.264Z,96622.59
2022-11-30T06:17:20.960Z,96614.19
2022-11-30T06:19:48.668Z,96623.59
2022-11-30T06:22:16.518Z,96622.78
2022-11-30T06:24:44.253Z,96623.38
2022-11-30T06:27:13.379Z,96626.03
2022-11-30T06:29:41.125Z,96617.66
2022-11-30T06:32:09.551Z,96603.13
2022-11-30T06:34:37.304Z,96623.56
2022-11-30T06:37:05.033Z,96625.00
2022-11-30T06:40:04.302Z,96635.22
2022-11-30T06:42:21.900Z,96630.13
2022-11-30T06:44:49.817Z,96629.34
2022-11-30T06:47:17.683Z,96634.66
2022-11-30T06:49:45.662Z,96623.19
2022-11-30T06:52:13.475Z,96634.59
2022-11-30T06:54:41.188Z,96630.69
2022-11-30T06:57:08.875Z,96612.94
2022-11-30T06:59:42.179Z,96629.72
2022-11-30T07:02:17.434Z,96618.50
2022-11-30T07:04:46.895Z,96633.19
2022-11-30T07:07:15.071Z,96629.75
2022-11-30T07:09:42.825Z,96638.75
2022-11-30T07:12:10.592Z,96639.53
2022-11-30T07:14:39.712Z,96626.63
2022-11-30T07:17:07.498Z,96631.94
2022-11-30T07:19:35.354Z,96635.00
2022-11-30T07:22:03.308Z,96641.78
2022-11-30T07:24:48.935Z,96643.22
2022-11-30T07:27:16.871Z,96648.75
2022-11-30T07:29:48.628Z,96640.81
2022-11-30T07:32:16.337Z,96636.66
2022-11-30T07:34:44.249Z,96631.97
2022-11-30T07:37:12.441Z,96633.00
2022-11-30T07:39:40.181Z,96633.03
2022-11-30T07:42:07.905Z,96632.41
2022-11-30T07:44:35.885Z,96627.28
2022-11-30T07:47:04.928Z,96636.06
2022-11-30T07:49:32.642Z,96633.25
2022-11-30T07:52:00.349Z,96633.03
2022-11-30T07:54:28.130Z,96633.00
2022-11-30T07:56:55.833Z,96640.81
2022-11-30T07:59:23.521Z,96643.44
2022-11-30T08:01:51.459Z,96644.03
2022-11-30T08:04:20.830Z,96644.44
2022-11-30T08:06:48.545Z,96644.03
2022-11-30T08:09:20.526Z,96646.53
2022-11-30T08:11:49.959Z,96651.03
2022-11-30T08:14:17.719Z,96650.41
2022-11-30T08:16:45.509Z,96651.03
2022-11-30T08:19:13.175Z,96650.00
2022-11-30T08:21:42.282Z,96649.41
2022-11-30T08:24:12.598Z,96648.53
2022-11-30T08:26:40.462Z,96621.16
2022-11-30T08:29:08.154Z,96650.97
2022-11-30T08:31:37.565Z,96658.53
2022-11-30T08:34:07.533Z,96652.63
2022-11-30T08:36:36.028Z,96657.72
2022-11-30T08:39:06.570Z,96662.78
2022-11-30T08:41:35.757Z,96653.38
2022-11-30T08:44:04.087Z,96668.28
2022-11-30T08:46:51.022Z,96667.72
2022-11-30T08:49:23.025Z,96672.94
2022-11-30T08:54:45.110Z,96671.06
2022-11-30T08:57:13.216Z,96679.47
2022-11-30T08:59:40.993Z,96680.69
2022-11-30T09:02:10.666Z,96681.91
2022-11-30T09:04:38.494Z,96678.81
2022-11-30T09:07:06.610Z,96674.97
2022-11-30T09:09:34.352Z,96678.03
2022-11-30T09:12:03.661Z,96677.59
2022-11-30T09:14:31.556Z,96680.69
2022-11-30T09:16:59.331Z,96683.19
2022-11-30T09:19:27.272Z,96687.69
2022-11-30T09:21:55.056Z,96683.19
2022-11-30T09:24:23.026Z,96682.34
2022-11-30T09:26:50.682Z,96688.06
2022-11-30T09:29:19.782Z,96681.97
2022-11-30T09:31:49.081Z,96684.03
2022-11-30T09:34:16.898Z,96679.75
2022-11-30T09:36:44.578Z,96687.69
2022-11-30T09:39:13.244Z,96668.06
2022-11-30T09:42:03.953Z,96680.97
2022-11-30T09:44:42.308Z,96677.63
2022-11-30T09:47:27.737Z,96683.63
2022-11-30T09:50:05.955Z,96686.88
2022-11-30T09:52:36.477Z,96677.88
2022-11-30T09:55:09.253Z,96671.78
2022-11-30T09:57:44.641Z,96672.22
2022-11-30T10:00:18.082Z,96668.97
2022-11-30T10:02:46.904Z,96673.03
2022-11-30T10:05:16.228Z,96673.03
2022-11-30T10:07:58.936Z,96674.09
2022-11-30T10:10:37.513Z,96681.28
2022-11-30T10:13:23.161Z,96671.69
2022-11-30T10:16:01.744Z,96669.88
2022-11-30T10:18:41.772Z,96666.38
2022-11-30T10:21:22.240Z,96672.28
2022-11-30T10:24:09.328Z,96666.97
2022-11-30T10:26:40.093Z,96666.19
2022-11-30T10:29:18.508Z,96663.50
2022-11-30T10:31:49.697Z,96661.69
2022-11-30T10:34:23.680Z,96667.41
2022-11-30T10:36:59.752Z,96669.03
2022-11-30T10:39:33.678Z,96662.88
2022-11-30T10:42:05.978Z,96667.81
2022-11-30T10:44:39.862Z,96673.94
2022-11-30T10:47:15.697Z,96671.47
2022-11-30T10:49:49.325Z,96673.94
2022-11-30T10:52:19.964Z,96662.06
2022-11-30T10:54:48.591Z,96669.44
2022-11-30T10:57:16.440Z,96665.75
2022-11-30T10:59:49.276Z,96654.13
2022-11-30T11:02:40.921Z,96647.38
2022-11-30T11:05:21.421Z,96647.97
2022-11-30T11:07:58.816Z,96640.84
2022-11-30T11:10:34.717Z,96631.00
2022-11-30T11:13:02.593Z,96645.53
2022-11-30T11:15:33.406Z,96647.56
2022-11-30T11:18:25.281Z,96640.81
2022-11-30T11:21:06.093Z,96621.63
2022-11-30T11:23:37.335Z,96650.00
2022-11-30T11:26:06.991Z,96645.28
2022-11-30T11:28:37.161Z,96650.03
2022-11-30T11:31:18.702Z,96660.06
2022-11-30T11:33:54.471Z,96657.19
2022-11-30T11:36:28.382Z,96652.47
2022-11-30T11:38:57.134Z,96654.91
2022-11-30T11:41:27.852Z,96654.31
2022-11-30T11:44:03.172Z,96662.47
2022-11-30T11:46:32.376Z,96649.00
2022-11-30T11:49:03.610Z,96653.31
2022-11-30T11:51:33.494Z,96645.75
2022-11-30T11:54:07.937Z,96653.69
2022-11-30T11:56:37.868Z,96652.06
2022-11-30T11:59:14.928Z,96653.06
2022-11-30T12:01:56.664Z,96643.25
2022-11-30T12:04:42.267Z,96639.19
2022-11-30T12:07:22.058Z,96643.69
2022-11-30T12:10:09.530Z,96631.81
2022-11-30T12:12:48.432Z,96638.38
2022-11-30T12:15:18.817Z,96646.94
2022-11-30T12:18:00.122Z,96641.22
2022-11-30T12:20:37.272Z,96645.31
2022-11-30T12:23:21.201Z,96645.94
2022-11-30T12:25:56.054Z,96643.28
2022-11-30T12:28:30.113Z,96642.47
2022-11-30T12:31:11.511Z,96639.41
2022-11-30T12:33:53.731Z,96639.81
2022-11-30T12:36:28.201Z,96629.59
2022-11-30T12:39:00.660Z,96638.38
2022-11-30T12:41:37.746Z,96637.16
2022-11-30T12:44:29.131Z,96636.31
2022-11-30T12:47:04.285Z,96630.81
2022-11-30T12:49:51.242Z,96624.25
2022-11-30T12:52:37.510Z,96640.63
2022-11-30T12:55:22.748Z,96606.88
2022-11-30T12:57:59.970Z,96629.78
2022-11-30T13:00:36.243Z,96607.72
2022-11-30T13:03:34.470Z,96635.31
2022-11-30T13:06:10.291Z,96634.69
2022-11-30T13:08:48.271Z,96625.50
2022-11-30T13:11:21.111Z,96626.94
2022-11-30T13:13:54.107Z,96621.59
2022-11-30T13:16:24.566Z,96633.22
2022-11-30T13:18:58.802Z,96622.41
2022-11-30T13:21:33.693Z,96630.38
2022-11-30T13:24:09.853Z,96621.19
2022-11-30T13:26:44.701Z,96623.66
2022-11-30T13:29:25.508Z,96630.81
2022-11-30T13:31:59.709Z,96630.59
2022-11-30T13:34:29.349Z,96629.78
2022-11-30T13:37:06.608Z,96635.09
2022-11-30T13:39:48.379Z,96636.94
2022-11-30T13:42:36.223Z,96631.78
2022-11-30T13:45:34.908Z,96634.28
2022-11-30T13:48:20.238Z,96633.41
2022-11-30T13:50:49.894Z,96635.03
2022-11-30T13:53:23.833Z,96635.63
2022-11-30T13:55:57.547Z,96652.97
2022-11-30T13:58:26.340Z,96648.22
2022-11-30T14:01:26.205Z,96638.97
2022-11-30T14:04:23.727Z,96645.88
2022-11-30T14:06:52.911Z,96640.56
2022-11-30T14:09:58.062Z,96645.09
2022-11-30T14:12:54.092Z,96643.53
2022-11-30T14:15:46.513Z,96646.75
2022-11-30T14:18:21.706Z,96646.91
2022-11-30T14:20:53.595Z,96640.13
2022-11-30T14:23:23.545Z,96642.00
2022-11-30T14:25:54.668Z,96647.38
2022-11-30T14:28:26.778Z,96647.91
2022-11-30T14:30:55.962Z,96645.50
2022-11-30T14:33:30.884Z,96651.19
2022-11-30T14:36:01.029Z,96648.56
2022-11-30T14:38:30.815Z,96649.41
2022-11-30T14:40:59.632Z,96656.09
2022-11-30T14:43:29.855Z,96653.66
2022-11-30T14:46:04.344Z,96657.69
2022-11-30T14:48:33.675Z,96657.47
2022-11-30T14:51:03.706Z,96652.38
2022-11-30T14:53:40.284Z,96657.66
2022-11-30T14:56:19.121Z,96659.41
2022-11-30T14:58:55.917Z,96650.31
2022-11-30T15:01:26.967Z,96655.22
2022-11-30T15:03:57.997Z,96649.94
2022-11-30T15:06:31.817Z,96656.03
2022-11-30T15:09:01.998Z,96635.97
2022-11-30T15:11:30.319Z,96659.84
2022-11-30T15:14:09.630Z,96652.72
2022-11-30T15:16:38.015Z,96654.34
2022-11-30T15:19:21.367Z,96653.66
2022-11-30T15:21:49.939Z,96653.84
2022-11-30T15:24:18.521Z,96649.00
2022-11-30T15:26:54.622Z,96655.56
2022-11-30T15:29:29.745Z,96658.63
2022-11-30T15:31:59.417Z,96664.13
2022-11-30T15:34:35.034Z,96651.84
2022-11-30T15:37:02.913Z,96661.44
2022-11-30T15:39:32.529Z,96667.50
2022-11-30T15:42:01.704Z,96659.53
2022-11-30T15:44:42.930Z,96658.09
2022-11-30T15:47:26.403Z,96660.75
2022-11-30T15:49:56.000Z,96669.72
2022-11-30T15:52:27.473Z,96645.53
2022-11-30T15:54:56.584Z,96666.44
2022-11-30T15:57:25.789Z,96666.00
2022-11-30T16:00:20.130Z,96671.66
2022-11-30T16:02:48.092Z,96673.56
2022-11-30T16:05:26.834Z,96664.44
2022-11-30T16:07:57.371Z,96678.53
2022-11-30T16:10:28.055Z,96676.31
2022-11-30T16:12:56.698Z,96685.44
2022-11-30T16:15:27.886Z,96676.47
2022-11-30T16:17:59.610Z,96679.25
2022-11-30T16:20:27.490Z,96689.03
2022-11-30T16:22:55.260Z,96694.34
2022-11-30T16:25:25.266Z,96687.94
2022-11-30T16:27:53.374Z,96692.91
2022-11-30T16:30:23.461Z,96694.63
2022-11-30T16:32:52.880Z,96693.66
2022-11-30T16:35:24.075Z,96705.06
2022-11-30T16:37:52.288Z,96707.41
2022-11-30T16:40:21.052Z,96703.56
2022-11-30T16:42:50.628Z,96718.63
2022-11-30T16:45:22.024Z,96708.03
2022-11-30T16:47:50.487Z,96693.88
2022-11-30T16:50:20.711Z,96695.94
2022-11-30T16:52:48.599Z,96714.88
2022-11-30T16:55:18.073Z,96716.50
2022-11-30T16:57:46.580Z,96710.84
2022-11-30T17:00:18.404Z,96721.94
2022-11-30T17:02:50.263Z,96718.13
2022-11-30T17:05:19.437Z,96726.50
2022-11-30T17:07:47.202Z,96719.53
2022-11-30T17:10:15.169Z,96716.66
2022-11-30T17:12:42.901Z,96719.38
2022-11-30T17:15:16.569Z,96718.69
2022-11-30T17:17:44.535Z,96722.41
2022-11-30T17:20:13.914Z,96731.34
2022-11-30T17:22:43.921Z,96732.28
2022-11-30T17:25:15.660Z,96725.19
2022-11-30T17:27:43.655Z,96730.91
2022-11-30T17:30:12.563Z,96739.28
2022-11-30T17:32:40.442Z,96746.19
2022-11-30T17:35:09.387Z,96743.78
2022-11-30T17:37:37.571Z,96748.38
2022-11-30T17:40:08.378Z,96744.28
2022-11-30T17:42:36.110Z,96748.16
2022-11-30T17:45:03.950Z,96742.69
2022-11-30T17:47:31.648Z,96753.41
2022-11-30T17:49:59.400Z,96743.00
2022-11-30T17:52:27.246Z,96748.66
2022-11-30T17:54:55.003Z,96747.28
2022-11-30T17:57:24.197Z,96747.72
2022-11-30T17:59:51.939Z,96746.72
2022-11-30T18:02:19.842Z,96735.63
2022-11-30T18:04:47.754Z,96750.47
2022-11-30T18:07:15.984Z,96749.31
2022-11-30T18:09:43.744Z,96751.28
2022-11-30T18:12:12.627Z,96751.28
2022-11-30T18:14:41.765Z,96762.41
2022-11-30T18:17:09.875Z,96767.88
2022-11-30T18:19:37.682Z,96751.78
2022-11-30T18:22:05.347Z,96766.19
2022-11-30T18:24:33.157Z,96772.13
2022-11-30T18:27:00.864Z,96776.41
2022-11-30T18:29:28.784Z,96779.03
2022-11-30T18:31:57.859Z,96774.84
2022-11-30T18:34:25.542Z,96784.50
2022-11-30T18:36:53.345Z,96791.25
2022-11-30T18:39:21.079Z,96783.69
2022-11-30T18:41:49.085Z,96785.56
2022-11-30T18:44:16.826Z,96782.22
2022-11-30T18:46:44.564Z,96782.13
2022-11-30T18:49:13.749Z,96783.06
2022-11-30T18:51:41.506Z,96779.41
2022-11-30T18:54:11.288Z,96793.66
2022-11-30T18:56:40.041Z,96783.94
2022-11-30T18:59:11.232Z,96763.28
2022-11-30T19:01:38.994Z,96785.50
2022-11-30T19:04:08.876Z,96784.03
2022-11-30T19:06:39.372Z,96776.94
2022-11-30T19:09:09.532Z,96778.66
2022-11-30T19:11:38.119Z,96774.53
2022-11-30T19:14:06.446Z,96783.59
2022-11-30T19:16:35.910Z,96791.47
2022-11-30T19:19:07.025Z,96753.25
2022-11-30T19:21:35.120Z,96788.34
2022-11-30T19:24:04.684Z,96789.53
2022-11-30T19:26:32.536Z,96789.94
2022-11-30T19:29:00.384Z,96789.69
2022-11-30T19:31:28.537Z,96783.19
2022-11-30T19:33:57.334Z,96790.78
2022-11-30T19:36:26.846Z,96789.50
2022-11-30T19:38:54.761Z,96782.75
2022-11-30T19:41:23.905Z,96788.13
2022-11-30T19:44:01.048Z,96782.16
2022-11-30T19:46:31.730Z,96780.81
2022-11-30T19:49:01.284Z,96763.56
2022-11-30T19:51:30.178Z,96782.94
2022-11-30T19:53:58.034Z,96785.13
2022-11-30T19:56:28.504Z,96787.34
2022-11-30T19:59:03.760Z,96792.25
2022-11-30T20:01:32.739Z,96791.13
2022-11-30T20:04:00.494Z,96784.19
2022-11-30T20:06:30.612Z,96780.41
2022-11-30T20:08:58.358Z,96772.16
2022-11-30T20:11:27.450Z,96778.94
2022-11-30T20:13:55.139Z,96780.41
2022-11-30T20:16:23.998Z,96767.97
2022-11-30T20:18:54.175Z,96771.84
2022-11-30T20:21:24.023Z,96768.81
2022-11-30T20:23:53.017Z,96775.50
2022-11-30T20:26:23.578Z,96768.41
2022-11-30T20:28:53.518Z,96760.28
2022-11-30T20:31:23.477Z,96771.44
2022-11-30T20:33:51.288Z,96765.94
2022-11-30T20:36:20.337Z,96769.69
2022-11-30T20:38:48.912Z,96766.78
2022-11-30T20:41:18.463Z,96756.38
2022-11-30T20:43:46.347Z,96766.44
2022-11-30T20:46:17.030Z,96766.53
2022-11-30T20:48:45.009Z,96773.88
2022-11-30T20:51:30.234Z,96768.63
2022-11-30T20:54:00.950Z,96766.94
2022-11-30T20:56:28.898Z,96766.78
2022-11-30T20:58:56.657Z,96769.78
2022-11-30T21:01:25.945Z,96769.94
2022-11-30T21:03:53.754Z,96766.81
2022-11-30T21:06:21.480Z,96766.69
2022-11-30T21:08:49.320Z,96760.38
2022-11-30T21:11:19.409Z,96765.94
2022-11-30T21:13:48.767Z,96762.38
2022-11-30T21:16:22.479Z,96764.66
2022-11-30T21:18:54.848Z,96770.22
2022-11-30T21:21:24.308Z,96771.41
2022-11-30T21:23:52.344Z,96759.22
2022-11-30T21:26:21.910Z,96759.94
2022-11-30T21:28:53.059Z,96775.56
2022-11-30T21:31:21.447Z,96782.03
2022-11-30T21:33:53.068Z,96784.16
2022-11-30T21:36:24.115Z,96786.19
2022-11-30T21:39:00.849Z,96783.63
2022-11-30T21:41:32.164Z,96785.25
2022-11-30T21:43:59.879Z,96781.88
2022-11-30T21:46:27.699Z,96786.09
2022-11-30T21:48:55.547Z,96784.91
2022-11-30T21:51:26.579Z,96787.16
2022-11-30T21:53:55.908Z,96790.66
2022-11-30T21:56:25.553Z,96785.72
2022-11-30T21:58:53.493Z,96787.28
2022-11-30T22:01:23.334Z,96787.16
2022-11-30T22:03:51.219Z,96786.19
2022-11-30T22:06:19.952Z,96786.19
2022-11-30T22:08:49.570Z,96781.78
2022-11-30T22:11:22.598Z,96790.25
2022-11-30T22:13:51.756Z,96771.03
2022-11-30T22:16:20.825Z,96789.00
2022-11-30T22:18:49.000Z,96773.13
2022-11-30T22:21:19.328Z,96780.31
2022-11-30T22:23:53.222Z,96772.56
2022-11-30T22:26:23.049Z,96779.13
2022-11-30T22:28:53.662Z,96784.03
2022-11-30T22:31:23.177Z,96764.75
2022-11-30T22:33:51.278Z,96778.38
2022-11-30T22:36:20.679Z,96777.75
2022-11-30T22:38:54.950Z,96771.19
2022-11-30T22:41:23.081Z,96757.69
2022-11-30T22:43:51.188Z,96767.00
2022-11-30T22:46:21.151Z,96757.69
2022-11-30T22:48:49.393Z,96774.03
2022-11-30T22:51:19.012Z,96764.88
2022-11-30T22:53:48.291Z,96775.59
2022-11-30T22:56:19.556Z,96775.41
2022-11-30T22:58:48.628Z,96776.56
2022-11-30T23:01:18.464Z,96783.59
2022-11-30T23:03:48.078Z,96775.66
2022-11-30T23:06:18.167Z,96786.31
2022-11-30T23:08:47.067Z,96777.84
2022-11-30T23:11:18.921Z,96792.72
2022-11-30T23:13:46.771Z,96781.50
2022-11-30T23:16:15.618Z,96779.66
2022-11-30T23:18:45.893Z,96784.72
2022-11-30T23:21:16.087Z,96783.97
2022-11-30T23:23:44.571Z,96783.00
2022-11-30T23:26:14.320Z,96783.97
2022-11-30T23:28:44.695Z,96775.81
2022-11-30T23:31:33.822Z,96775.41
2022-11-30T23:34:02.337Z,96775.69
2022-11-30T23:36:30.079Z,96768.38
2022-11-30T23:38:59.904Z,96759.94
2022-11-30T23:41:28.077Z,96761.22
2022-11-30T23:43:57.327Z,96750.75
2022-11-30T23:46:25.399Z,96760.38
2022-11-30T23:48:53.275Z,96762.75
2022-11-30T23:51:20.943Z,96753.63
2022-11-30T23:53:48.915Z,96765.22
2022-11-30T23:56:18.566Z,96764.41
2022-11-30T23:58:46.621Z,96758.25
